Time;durP1;ratioP1;P1;durP2;ratioP2;P2;SDS_P1;SDS_P2;PMS_P1;PMS_P2;Temp;Humidity;BMP_temperature;BMP_pressure;BME280_temperature;BME280_humidity;BME280_pressure;Samples;Min_cycle;Max_cycle;Signal;HPM_P1;HPM_P2
2022/05/22 00:00:02;;;;;;;6.90;1.00;;;13.70;99.90;;;;;;5074757;28;20213;-58
2022/05/22 00:02:29;;;;;;;1.53;0.90;;;13.70;99.90;;;;;;5074918;28;20215;-57
2022/05/22 00:04:55;;;;;;;4.47;1.07;;;13.70;99.90;;;;;;5074817;28;20228;-56
2022/05/22 00:07:23;;;;;;;4.73;1.10;;;13.60;99.90;;;;;;5074994;28;20839;-57
2022/05/22 00:09:50;;;;;;;2.80;1.10;;;13.60;99.90;;;;;;5074885;28;20297;-58
2022/05/22 00:12:17;;;;;;;2.53;1.07;;;13.60;99.90;;;;;;5074642;28;20666;-57
2022/05/22 00:14:44;;;;;;;1.67;1.03;;;13.50;99.90;;;;;;5074878;28;20655;-58
2022/05/22 00:17:11;;;;;;;7.20;1.10;;;13.50;99.90;;;;;;5074579;28;20221;-58
2022/05/22 00:19:39;;;;;;;5.80;1.10;;;13.50;99.90;;;;;;5074814;28;20298;-59
2022/05/22 00:22:06;;;;;;;4.13;1.30;;;13.50;99.90;;;;;;5074510;28;20647;-57
2022/05/22 00:24:35;;;;;;;7.87;1.33;;;13.50;99.90;;;;;;5074677;28;20200;-56
2022/05/22 00:27:03;;;;;;;1.10;1.00;;;13.50;99.90;;;;;;5074563;28;20200;-58
2022/05/22 00:29:31;;;;;;;1.63;1.10;;;13.50;99.90;;;;;;5074594;28;20205;-56
2022/05/22 00:31:58;;;;;;;3.17;1.10;;;13.50;99.90;;;;;;5073969;28;20221;-56
2022/05/22 00:34:25;;;;;;;1.20;1.10;;;13.40;99.90;;;;;;5074451;28;20572;-54
2022/05/22 00:36:52;;;;;;;2.27;0.90;;;13.40;99.90;;;;;;5074379;28;20200;-57
2022/05/22 00:39:19;;;;;;;3.20;1.10;;;13.40;99.90;;;;;;5074468;28;20571;-58
2022/05/22 00:41:51;;;;;;;9.53;1.37;;;13.40;99.90;;;;;;5074057;28;20201;-58
2022/05/22 00:44:18;;;;;;;5.80;1.23;;;13.30;99.90;;;;;;5074136;28;20239;-58
2022/05/22 00:46:45;;;;;;;4.03;1.20;;;13.30;99.90;;;;;;5074434;28;20209;-57
2022/05/22 00:49:16;;;;;;;3.60;1.50;;;13.20;99.90;;;;;;5073818;28;20269;-60
2022/05/22 00:51:48;;;;;;;5.90;1.40;;;13.20;99.90;;;;;;5074216;28;20216;-59
2022/05/22 00:54:19;;;;;;;2.63;1.17;;;13.10;99.90;;;;;;5074215;28;20640;-58
2022/05/22 00:56:53;;;;;;;2.07;1.10;;;13.10;99.90;;;;;;5074039;28;20236;-57
2022/05/22 00:59:25;;;;;;;2.67;1.30;;;13.00;99.90;;;;;;5073898;28;20199;-57
2022/05/22 01:01:54;;;;;;;6.00;1.30;;;13.00;99.90;;;;;;5074012;28;20189;-56
2022/05/22 01:04:24;;;;;;;3.40;1.40;;;12.90;99.90;;;;;;5073911;28;20204;-57
2022/05/22 01:06:52;;;;;;;3.67;1.27;;;12.80;99.90;;;;;;5073324;28;20193;-55
2022/05/22 01:09:19;;;;;;;3.37;1.20;;;12.80;99.90;;;;;;5073968;28;20216;-57
2022/05/22 01:11:49;;;;;;;1.53;1.20;;;12.80;99.90;;;;;;5073860;28;20227;-56
2022/05/22 01:14:22;;;;;;;4.03;1.20;;;12.80;99.90;;;;;;5073586;28;20209;-57
2022/05/22 01:16:49;;;;;;;3.43;1.40;;;12.80;99.90;;;;;;5073838;28;20646;-58
2022/05/22 01:19:18;;;;;;;1.00;1.00;;;12.80;99.90;;;;;;5073491;28;20204;-57
2022/05/22 01:21:52;;;;;;;4.50;1.30;;;12.80;99.90;;;;;;5073652;28;20577;-57
2022/05/22 01:24:19;;;;;;;1.63;1.20;;;12.70;99.90;;;;;;5073992;28;20192;-58
2022/05/22 01:26:47;;;;;;;2.70;1.20;;;12.70;99.90;;;;;;5073552;28;20204;-57
2022/05/22 01:29:14;;;;;;;2.40;1.10;;;12.60;99.90;;;;;;5073613;28;20200;-57
2022/05/22 01:31:41;;;;;;;1.80;1.17;;;12.60;99.90;;;;;;5073460;28;20258;-59
2022/05/22 01:34:08;;;;;;;1.33;1.20;;;12.60;99.90;;;;;;5073568;28;20368;-58
2022/05/22 01:36:35;;;;;;;2.07;1.17;;;12.60;99.90;;;;;;5073421;28;20205;-58
2022/05/22 01:39:04;;;;;;;2.90;1.40;;;12.60;99.90;;;;;;5073224;28;20234;-59
2022/05/22 01:41:31;;;;;;;4.70;1.60;;;12.50;99.90;;;;;;5073391;28;20201;-58
2022/05/22 01:43:57;;;;;;;5.83;1.30;;;12.50;99.90;;;;;;5072735;28;20235;-58
2022/05/22 01:46:24;;;;;;;2.47;1.33;;;12.50;99.90;;;;;;5072739;28;20216;-57
2022/05/22 01:48:51;;;;;;;3.30;1.30;;;12.50;99.90;;;;;;5072694;28;20216;-59
2022/05/22 01:51:18;;;;;;;2.70;1.20;;;12.50;99.90;;;;;;5072594;28;20223;-56
2022/05/22 01:53:45;;;;;;;1.40;1.10;;;12.50;99.90;;;;;;5072955;28;20634;-57
2022/05/22 01:56:13;;;;;;;2.33;1.40;;;12.50;99.90;;;;;;5072712;28;20237;-57
2022/05/22 01:58:39;;;;;;;2.90;1.20;;;12.50;99.90;;;;;;5072651;28;20193;-57
2022/05/22 02:01:08;;;;;;;1.73;1.50;;;12.50;99.90;;;;;;5072356;28;20205;-56
2022/05/22 02:03:35;;;;;;;1.37;1.23;;;12.40;99.90;;;;;;5072784;28;20558;-59
2022/05/22 02:06:02;;;;;;;1.87;1.27;;;12.40;99.90;;;;;;5072735;28;20694;-56
2022/05/22 02:08:28;;;;;;;5.97;1.70;;;12.40;99.90;;;;;;5072719;28;20227;-57
2022/05/22 02:10:58;;;;;;;7.73;1.40;;;12.40;99.90;;;;;;5072374;28;20733;-57
2022/05/22 02:13:28;;;;;;;5.03;1.50;;;12.40;99.90;;;;;;5072311;28;20209;-57
2022/05/22 02:15:55;;;;;;;3.20;1.57;;;12.40;99.90;;;;;;5072295;28;20204;-57
2022/05/22 02:18:22;;;;;;;1.50;1.30;;;12.40;99.90;;;;;;5072569;28;20204;-56
2022/05/22 02:20:50;;;;;;;2.67;1.30;;;12.40;99.90;;;;;;5072307;28;20561;-57
2022/05/22 02:23:17;;;;;;;6.63;1.70;;;12.50;99.90;;;;;;5072128;28;20215;-57
2022/05/22 02:25:46;;;;;;;2.67;1.30;;;12.50;99.90;;;;;;5072186;28;20204;-56
2022/05/22 02:28:14;;;;;;;2.90;1.40;;;12.60;99.90;;;;;;5072261;28;20201;-59
2022/05/22 02:30:48;;;;;;;3.00;1.50;;;12.70;99.90;;;;;;5071871;28;20213;-56
2022/05/22 02:33:14;;;;;;;1.83;1.30;;;12.70;99.90;;;;;;5072398;28;20558;-58
2022/05/22 02:35:41;;;;;;;3.67;1.50;;;12.80;99.90;;;;;;5072073;28;20567;-58
2022/05/22 02:38:10;;;;;;;1.30;1.20;;;12.80;99.90;;;;;;5072193;28;20662;-58
2022/05/22 02:40:38;;;;;;;7.90;1.53;;;12.90;99.90;;;;;;5072040;28;20243;-58
2022/05/22 02:43:06;;;;;;;4.40;1.40;;;12.90;99.90;;;;;;5071977;28;20772;-58
2022/05/22 02:45:37;;;;;;;3.30;1.50;;;13.00;99.90;;;;;;5072093;28;20586;-57
2022/05/22 02:48:06;;;;;;;4.63;1.40;;;13.00;99.90;;;;;;5072088;28;20199;-58
2022/05/22 02:50:34;;;;;;;2.70;1.50;;;13.10;99.90;;;;;;5071831;28;20200;-57
2022/05/22 02:53:01;;;;;;;3.90;1.60;;;13.10;99.90;;;;;;5071696;28;20235;-57
2022/05/22 02:55:28;;;;;;;1.93;1.33;;;13.10;99.90;;;;;;5071864;28;20585;-57
2022/05/22 02:57:55;;;;;;;1.73;1.57;;;13.20;99.90;;;;;;5071353;28;20243;-56
2022/05/22 03:00:24;;;;;;;3.53;2.00;;;13.20;99.90;;;;;;5071834;28;20204;-56
2022/05/22 03:02:52;;;;;;;2.83;1.47;;;13.20;99.90;;;;;;5071620;28;20302;-59
2022/05/22 03:05:20;;;;;;;2.63;1.87;;;13.20;99.90;;;;;;5071544;28;20204;-58
2022/05/22 03:07:47;;;;;;;6.60;2.30;;;13.30;99.90;;;;;;5071529;28;20205;-56
2022/05/22 03:10:17;;;;;;;2.63;1.47;;;13.30;99.90;;;;;;5071737;28;20204;-58
2022/05/22 03:12:44;;;;;;;2.70;1.70;;;13.30;99.90;;;;;;5071675;28;20319;-58
2022/05/22 03:15:13;;;;;;;2.80;1.60;;;13.40;99.90;;;;;;5071405;28;20212;-59
2022/05/22 03:17:39;;;;;;;9.40;1.70;;;13.30;99.90;;;;;;5071516;28;20204;-57
2022/05/22 03:20:07;;;;;;;3.17;1.57;;;13.40;99.90;;;;;;5071693;28;20211;-56
2022/05/22 03:22:36;;;;;;;3.33;1.70;;;13.40;99.90;;;;;;5071418;28;20203;-57
2022/05/22 03:25:04;;;;;;;2.73;1.60;;;13.40;99.90;;;;;;5071855;28;20564;-56
2022/05/22 03:27:31;;;;;;;4.10;1.73;;;13.40;99.90;;;;;;5071654;28;20306;-56
2022/05/22 03:29:57;;;;;;;4.37;1.80;;;13.40;99.90;;;;;;5074928;28;20295;-57
2022/05/22 03:32:25;;;;;;;2.03;1.60;;;13.40;99.90;;;;;;5075641;28;20229;-57
2022/05/22 03:34:52;;;;;;;2.73;1.70;;;13.40;99.90;;;;;;5075238;28;20308;-58
2022/05/22 03:37:19;;;;;;;2.50;1.57;;;13.40;99.90;;;;;;5075622;28;20718;-57
2022/05/22 03:39:47;;;;;;;5.23;1.60;;;13.40;99.90;;;;;;5075606;28;20205;-59
2022/05/22 03:42:14;;;;;;;4.80;1.73;;;13.40;99.90;;;;;;5075599;28;20728;-57
2022/05/22 03:44:40;;;;;;;2.87;1.57;;;13.40;99.90;;;;;;5075332;28;20655;-57
2022/05/22 03:47:07;;;;;;;3.10;1.87;;;13.50;99.90;;;;;;5075559;28;20207;-57
2022/05/22 03:49:34;;;;;;;3.67;1.93;;;13.40;99.90;;;;;;5075385;28;20199;-57
2022/05/22 03:52:01;;;;;;;3.60;1.77;;;13.40;99.90;;;;;;5075363;28;20231;-58
2022/05/22 03:54:28;;;;;;;3.57;1.90;;;13.40;99.90;;;;;;5075239;28;20204;-58
2022/05/22 03:56:57;;;;;;;5.40;1.90;;;13.40;99.90;;;;;;5075063;28;20243;-57
2022/05/22 03:59:24;;;;;;;9.00;1.90;;;13.40;99.90;;;;;;5075269;28;20254;-57
2022/05/22 04:01:52;;;;;;;2.30;1.70;;;13.40;99.90;;;;;;5075074;28;20201;-56
2022/05/22 04:04:19;;;;;;;3.63;1.90;;;13.30;99.90;;;;;;5074765;28;20227;-59
2022/05/22 04:06:46;;;;;;;3.80;1.80;;;13.30;99.90;;;;;;5074659;28;20216;-56
2022/05/22 04:09:13;;;;;;;9.33;2.23;;;13.40;99.90;;;;;;5074980;28;20581;-57
2022/05/22 04:11:41;;;;;;;2.10;1.90;;;13.40;99.90;;;;;;5074683;28;20247;-58
2022/05/22 04:14:10;;;;;;;4.20;2.00;;;13.40;99.90;;;;;;5074953;28;20318;-58
2022/05/22 04:16:36;;;;;;;3.93;1.73;;;13.40;99.90;;;;;;5074733;28;20363;-59
2022/05/22 04:19:03;;;;;;;2.67;1.77;;;13.40;99.90;;;;;;5074721;28;20204;-56
2022/05/22 04:21:30;;;;;;;3.87;1.70;;;13.40;99.90;;;;;;5074271;28;20220;-57
2022/05/22 04:26:41;;;;;;;3.70;1.83;;;13.40;99.90;;;;;;5074178;28;20196;-57
2022/05/22 04:29:10;;;;;;;4.40;1.80;;;13.40;99.90;;;;;;5074352;28;20205;-58
2022/05/22 04:31:37;;;;;;;6.87;2.17;;;13.50;99.90;;;;;;5074033;28;20223;-57
2022/05/22 04:34:03;;;;;;;3.83;2.20;;;13.50;99.90;;;;;;5074401;28;20630;-56
2022/05/22 04:36:30;;;;;;;4.80;2.10;;;13.50;99.90;;;;;;5074169;28;20662;-57
2022/05/22 04:38:57;;;;;;;2.10;1.73;;;13.60;99.90;;;;;;5074319;28;20256;-59
2022/05/22 04:41:24;;;;;;;7.33;2.00;;;13.60;99.90;;;;;;5074130;28;20675;-57
2022/05/22 04:43:51;;;;;;;3.50;2.27;;;13.60;99.90;;;;;;5074170;28;20709;-56
2022/05/22 04:46:19;;;;;;;5.10;2.10;;;13.70;99.90;;;;;;5073761;28;20216;-57
2022/05/22 04:48:45;;;;;;;5.33;2.00;;;13.80;99.90;;;;;;5073926;28;20204;-56
2022/05/22 04:51:13;;;;;;;3.67;2.20;;;13.80;99.90;;;;;;5073782;28;20212;-57
2022/05/22 04:53:40;;;;;;;1.70;1.60;;;13.90;99.90;;;;;;5073541;28;20224;-57
2022/05/22 04:56:06;;;;;;;2.00;1.80;;;13.90;99.90;;;;;;5073804;28;20320;-58
2022/05/22 04:58:33;;;;;;;1.70;1.60;;;13.90;99.90;;;;;;5073788;28;20197;-57
2022/05/22 05:01:05;;;;;;;14.63;1.90;;;14.00;99.90;;;;;;5073533;28;20205;-58
2022/05/22 05:03:34;;;;;;;4.53;1.90;;;14.10;99.90;;;;;;5073949;28;20574;-57
2022/05/22 05:06:01;;;;;;;2.43;1.60;;;14.20;99.90;;;;;;5073819;28;20216;-55
2022/05/22 05:08:29;;;;;;;3.03;1.60;;;14.40;99.90;;;;;;5073605;28;20290;-58
2022/05/22 05:10:57;;;;;;;3.57;1.57;;;14.50;99.90;;;;;;5073727;28;20636;-58
2022/05/22 05:13:24;;;;;;;3.60;1.50;;;14.50;99.90;;;;;;5073433;28;20232;-60
2022/05/22 05:16:03;;;;;;;3.50;1.87;;;14.50;99.90;;;;;;5073260;28;20209;-56
2022/05/22 05:18:30;;;;;;;1.73;1.50;;;14.50;99.90;;;;;;5073067;28;20215;-59
2022/05/22 05:21:02;;;;;;;3.37;1.30;;;14.40;99.90;;;;;;5073453;28;20684;-56
2022/05/22 05:23:29;;;;;;;1.90;1.50;;;14.30;99.90;;;;;;5073080;28;20180;-57
2022/05/22 05:25:56;;;;;;;2.70;1.70;;;14.30;99.90;;;;;;5073516;28;20200;-57
2022/05/22 05:28:23;;;;;;;3.60;1.53;;;14.30;99.90;;;;;;5072982;28;20212;-59
2022/05/22 05:30:50;;;;;;;1.30;1.20;;;14.30;99.90;;;;;;5073507;28;20638;-56
2022/05/22 05:33:17;;;;;;;4.77;1.40;;;14.30;99.90;;;;;;5072719;28;20228;-59
2022/05/22 05:35:44;;;;;;;2.57;1.43;;;14.30;99.90;;;;;;5073459;28;20209;-57
2022/05/22 05:38:12;;;;;;;2.80;1.50;;;14.30;99.90;;;;;;5072991;28;20220;-58
2022/05/22 05:40:40;;;;;;;5.97;1.53;;;14.30;99.90;;;;;;5072964;28;20223;-57
2022/05/22 05:43:07;;;;;;;1.40;1.30;;;14.40;99.90;;;;;;5072844;28;20237;-57
2022/05/22 05:45:34;;;;;;;6.00;1.40;;;14.40;99.90;;;;;;5072603;28;20216;-58
2022/05/22 05:48:01;;;;;;;3.00;1.57;;;14.50;99.90;;;;;;5073074;28;20231;-60
2022/05/22 05:50:28;;;;;;;2.80;1.57;;;14.60;99.90;;;;;;5072602;28;20219;-58
2022/05/22 05:52:57;;;;;;;3.97;1.80;;;14.70;99.90;;;;;;5072257;28;20311;-58
2022/05/22 05:55:25;;;;;;;5.27;1.57;;;14.70;99.90;;;;;;5072451;28;20200;-57
2022/05/22 05:57:52;;;;;;;1.70;1.30;;;14.80;99.90;;;;;;5072617;28;20229;-59
2022/05/22 06:00:22;;;;;;;3.10;1.40;;;14.70;99.90;;;;;;5072692;28;20205;-58
2022/05/22 06:02:49;;;;;;;5.37;1.73;;;14.70;99.90;;;;;;5072763;28;20651;-58
2022/05/22 06:05:16;;;;;;;6.13;1.60;;;14.70;99.90;;;;;;5072690;28;20223;-58
2022/05/22 06:07:43;;;;;;;1.60;1.30;;;14.60;99.90;;;;;;5072489;28;20212;-58
2022/05/22 06:10:12;;;;;;;3.33;1.43;;;14.50;99.90;;;;;;5072647;28;20210;-58
2022/05/22 06:12:40;;;;;;;1.90;1.40;;;14.40;99.90;;;;;;5072167;28;20266;-56
2022/05/22 06:15:08;;;;;;;2.27;1.50;;;14.30;99.90;;;;;;5072382;28;20294;-58
2022/05/22 06:17:38;;;;;;;2.10;1.50;;;14.30;99.90;;;;;;5072643;28;20691;-59
2022/05/22 06:20:08;;;;;;;4.77;2.10;;;14.20;99.90;;;;;;5072590;28;20200;-59
2022/05/22 06:22:36;;;;;;;6.60;1.77;;;14.20;99.90;;;;;;5072582;28;20200;-57
2022/05/22 06:25:04;;;;;;;4.33;1.90;;;14.30;99.90;;;;;;5072125;28;20205;-60
2022/05/22 06:27:31;;;;;;;5.43;1.67;;;14.30;99.90;;;;;;5071800;28;20205;-57
2022/05/22 06:29:59;;;;;;;1.83;1.50;;;14.40;99.90;;;;;;5072070;28;20295;-59
2022/05/22 06:32:27;;;;;;;2.57;1.60;;;14.40;99.90;;;;;;5072200;28;20243;-60
2022/05/22 06:34:53;;;;;;;5.10;1.90;;;14.40;99.90;;;;;;5072254;28;20204;-60
2022/05/22 06:37:22;;;;;;;6.53;1.60;;;14.30;99.90;;;;;;5072110;28;20299;-59
2022/05/22 06:39:52;;;;;;;2.97;1.43;;;14.20;99.90;;;;;;5072041;28;20200;-60
2022/05/22 06:42:22;;;;;;;3.60;1.80;;;14.20;99.90;;;;;;5071975;28;20710;-59
2022/05/22 06:44:57;;;;;;;3.47;1.90;;;14.30;99.90;;;;;;5071918;28;20216;-58
2022/05/22 06:47:27;;;;;;;4.30;1.80;;;14.30;99.90;;;;;;5072142;28;20623;-58
2022/05/22 06:49:54;;;;;;;3.00;1.93;;;14.20;99.90;;;;;;5072345;28;20203;-57
2022/05/22 06:52:21;;;;;;;1.97;1.50;;;14.30;99.90;;;;;;5071731;28;20307;-61
2022/05/22 06:54:48;;;;;;;1.60;1.50;;;14.40;99.90;;;;;;5072071;28;20208;-59
2022/05/22 06:57:18;;;;;;;4.30;1.40;;;14.40;99.90;;;;;;5071520;28;20294;-59
2022/05/22 06:59:46;;;;;;;3.17;1.77;;;14.40;99.90;;;;;;5072009;28;20294;-56
2022/05/22 07:02:14;;;;;;;2.43;1.57;;;14.40;99.90;;;;;;5071648;28;20208;-58
2022/05/22 07:04:43;;;;;;;2.53;1.70;;;14.40;99.90;;;;;;5071071;28;20697;-59
2022/05/22 07:07:10;;;;;;;3.97;1.50;;;14.30;99.90;;;;;;5071674;28;20204;-58
2022/05/22 07:09:37;;;;;;;3.57;1.60;;;14.30;99.90;;;;;;5071790;28;20835;-59
2022/05/22 07:12:07;;;;;;;3.73;1.53;;;14.40;99.90;;;;;;5071283;28;20290;-61
2022/05/22 07:14:34;;;;;;;2.70;1.57;;;14.30;99.90;;;;;;5071407;28;20610;-57
2022/05/22 07:17:02;;;;;;;1.47;1.30;;;14.30;99.90;;;;;;5071301;28;20209;-56
2022/05/22 07:19:30;;;;;;;2.50;1.90;;;14.30;99.90;;;;;;5071412;28;20204;-59
2022/05/22 07:21:58;;;;;;;3.73;2.10;;;14.30;99.90;;;;;;5071606;28;20295;-58
2022/05/22 07:24:24;;;;;;;6.50;1.70;;;14.30;99.90;;;;;;5071618;28;20196;-59
2022/05/22 07:26:51;;;;;;;4.40;1.73;;;14.30;99.90;;;;;;5071738;28;20557;-58
2022/05/22 07:29:18;;;;;;;2.60;1.60;;;14.20;99.90;;;;;;5071563;28;20682;-57
2022/05/22 07:31:45;;;;;;;2.97;1.40;;;14.20;99.90;;;;;;5071708;28;20658;-58
2022/05/22 07:34:12;;;;;;;1.57;1.30;;;14.10;99.90;;;;;;5071420;28;20216;-58
2022/05/22 07:36:39;;;;;;;2.33;1.23;;;14.10;99.90;;;;;;5071241;28;20216;-57
2022/05/22 07:39:07;;;;;;;4.83;1.60;;;14.10;99.90;;;;;;5071238;28;20678;-58
2022/05/22 07:41:35;;;;;;;1.70;1.50;;;14.10;99.90;;;;;;5071127;28;20237;-59
2022/05/22 07:44:02;;;;;;;6.63;1.40;;;14.00;99.90;;;;;;5071172;28;20262;-58
2022/05/22 07:46:28;;;;;;;2.43;1.30;;;13.90;99.90;;;;;;5071287;28;20204;-56
2022/05/22 07:48:55;;;;;;;1.80;1.40;;;13.80;99.90;;;;;;5071272;28;20208;-56
2022/05/22 07:51:22;;;;;;;3.37;1.40;;;13.70;99.90;;;;;;5071380;28;20675;-60
2022/05/22 07:53:50;;;;;;;2.50;1.50;;;13.60;99.90;;;;;;5071392;28;20630;-59
2022/05/22 07:56:21;;;;;;;1.87;1.43;;;13.60;99.90;;;;;;5070910;28;20228;-59
2022/05/22 07:58:48;;;;;;;2.50;1.50;;;13.60;99.90;;;;;;5071265;28;20200;-59
2022/05/22 08:01:15;;;;;;;2.40;1.40;;;13.60;99.90;;;;;;5071064;28;20344;-56
2022/05/22 08:03:41;;;;;;;1.60;1.47;;;13.60;99.90;;;;;;5070676;28;20219;-58
2022/05/22 08:06:09;;;;;;;3.23;1.40;;;13.50;99.90;;;;;;5070676;28;20205;-57
2022/05/22 08:08:36;;;;;;;3.87;1.47;;;13.40;99.90;;;;;;5070603;28;20219;-58
2022/05/22 08:11:03;;;;;;;1.33;1.20;;;13.40;99.90;;;;;;5070769;28;20223;-58
2022/05/22 08:13:31;;;;;;;1.80;1.50;;;13.40;99.90;;;;;;5070858;28;20251;-57
2022/05/22 08:15:57;;;;;;;2.23;1.50;;;13.40;99.90;;;;;;5073822;28;20223;-59
2022/05/22 08:18:24;;;;;;;2.73;1.57;;;13.40;99.90;;;;;;5074564;28;20592;-59
2022/05/22 08:20:52;;;;;;;2.63;1.80;;;13.50;99.90;;;;;;5074337;28;20219;-59
2022/05/22 08:23:21;;;;;;;2.80;1.40;;;13.60;99.90;;;;;;5074258;28;20258;-57
2022/05/22 08:25:49;;;;;;;1.50;1.23;;;13.50;99.90;;;;;;5074202;28;20262;-60
2022/05/22 08:28:17;;;;;;;2.40;1.30;;;13.60;99.90;;;;;;5074446;28;20204;-58
2022/05/22 08:30:46;;;;;;;2.27;1.50;;;13.70;99.90;;;;;;5074248;28;20654;-58
2022/05/22 08:33:13;;;;;;;3.73;1.40;;;13.70;99.90;;;;;;5074300;28;20236;-57
2022/05/22 08:35:42;;;;;;;1.53;1.30;;;13.70;99.90;;;;;;5074168;28;20334;-58
2022/05/22 08:38:09;;;;;;;1.37;1.20;;;13.70;99.90;;;;;;5074231;28;20362;-60
2022/05/22 08:40:49;;;;;;;1.37;1.27;;;13.60;99.90;;;;;;5074414;28;20227;-59
2022/05/22 08:43:22;;;;;;;2.63;1.53;;;13.60;99.90;;;;;;5073770;28;20224;-59
2022/05/22 08:45:56;;;;;;;3.93;1.70;;;13.70;99.90;;;;;;5073985;28;20239;-57
2022/05/22 08:48:32;;;;;;;3.43;1.40;;;13.80;99.90;;;;;;5074053;28;20185;-57
2022/05/22 08:51:00;;;;;;;2.00;1.47;;;13.80;99.90;;;;;;5073663;28;20196;-58
2022/05/22 08:53:33;;;;;;;2.47;1.40;;;13.70;99.90;;;;;;5073666;28;20229;-59
2022/05/22 08:58:57;;;;;;;3.33;2.00;;;13.60;99.90;;;;;;5073728;28;20239;-61
2022/05/22 09:01:38;;;;;;;1.97;1.53;;;13.70;99.90;;;;;;5073663;28;20189;-58
2022/05/22 09:04:12;;;;;;;2.73;1.50;;;13.80;99.90;;;;;;5073867;28;20189;-58
2022/05/22 09:06:44;;;;;;;2.43;1.60;;;13.80;99.90;;;;;;5073988;28;20518;-57
2022/05/22 09:09:11;;;;;;;3.83;1.50;;;13.80;99.90;;;;;;5073691;28;20189;-56
2022/05/22 09:11:56;;;;;;;1.40;1.30;;;13.90;99.90;;;;;;5073966;28;20204;-58
2022/05/22 09:14:28;;;;;;;1.90;1.20;;;13.90;99.90;;;;;;5073821;28;20204;-57
2022/05/22 09:17:01;;;;;;;1.63;1.40;;;14.00;99.90;;;;;;5073453;28;20185;-59
2022/05/22 09:19:34;;;;;;;1.37;1.20;;;14.10;99.90;;;;;;5073668;28;20200;-58
2022/05/22 09:22:08;;;;;;;5.20;1.33;;;14.00;99.90;;;;;;5073637;28;20197;-58
2022/05/22 09:24:44;;;;;;;2.17;1.10;;;13.90;99.90;;;;;;5073294;28;20208;-58
2022/05/22 09:27:18;;;;;;;1.33;1.23;;;13.80;99.90;;;;;;5072666;28;20196;-59
2022/05/22 09:29:59;;;;;;;1.47;1.27;;;13.70;99.90;;;;;;5073354;28;20189;-58
2022/05/22 09:32:38;;;;;;;1.73;1.27;;;13.60;99.90;;;;;;5073230;28;20196;-57
2022/05/22 09:35:15;;;;;;;3.43;2.00;;;13.50;99.90;;;;;;5072775;28;20219;-60
2022/05/22 09:37:54;;;;;;;6.17;3.40;;;13.40;99.90;;;;;;5073289;28;20559;-59
2022/05/22 09:40:29;;;;;;;1.17;1.10;;;13.30;99.90;;;;;;5073001;28;20189;-58
2022/05/22 09:43:26;;;;;;;1.33;1.17;;;13.20;99.90;;;;;;5072650;28;20228;-59
2022/05/22 09:46:03;;;;;;;1.30;1.20;;;13.20;99.90;;;;;;5064155;28;20659;-59
2022/05/22 09:48:54;;;;;;;3.90;1.30;;;13.10;99.90;;;;;;5073210;28;20642;-57
2022/05/22 09:51:31;;;;;;;2.77;1.70;;;13.00;99.90;;;;;;5071278;28;20250;-58
2022/05/22 09:54:17;;;;;;;2.97;1.73;;;12.90;99.90;;;;;;5072537;28;20208;-57
2022/05/22 09:56:50;;;;;;;2.87;1.90;;;12.80;99.90;;;;;;5072366;28;20240;-57
2022/05/22 09:59:32;;;;;;;3.30;1.67;;;12.70;99.90;;;;;;5072990;28;20190;-58
2022/05/22 10:02:05;;;;;;;2.43;1.90;;;12.60;99.90;;;;;;5072651;28;20281;-59
2022/05/22 10:04:41;;;;;;;1.20;1.20;;;12.50;99.90;;;;;;5072467;28;20189;-58
2022/05/22 10:07:19;;;;;;;2.17;1.47;;;12.40;99.90;;;;;;5072883;28;20192;-59
2022/05/22 10:09:53;;;;;;;1.70;1.60;;;12.30;99.90;;;;;;5072389;28;20192;-59
2022/05/22 10:12:29;;;;;;;5.40;1.57;;;12.20;99.90;;;;;;5072745;28;20190;-58
2022/05/22 10:15:12;;;;;;;1.70;1.60;;;12.30;99.90;;;;;;5072392;28;20613;-58
2022/05/22 10:18:04;;;;;;;2.90;1.60;;;12.30;99.90;;;;;;5072049;28;20236;-58
2022/05/22 10:20:45;;;;;;;2.37;1.70;;;12.40;99.90;;;;;;5072527;28;20201;-57
2022/05/22 10:23:24;;;;;;;1.57;1.47;;;12.30;99.90;;;;;;5072466;28;20193;-59
2022/05/22 10:25:59;;;;;;;1.83;1.57;;;12.40;99.90;;;;;;5072314;28;20211;-58
2022/05/22 10:28:30;;;;;;;2.40;1.60;;;12.40;99.90;;;;;;5072073;28;20188;-59
2022/05/22 10:31:01;;;;;;;3.37;1.70;;;12.30;99.90;;;;;;5072196;28;20559;-58
2022/05/22 10:33:33;;;;;;;1.77;1.67;;;12.40;99.90;;;;;;5072019;28;20200;-58
2022/05/22 10:36:09;;;;;;;2.23;1.60;;;12.50;99.90;;;;;;5072081;28;20185;-57
2022/05/22 10:38:41;;;;;;;2.17;1.73;;;12.50;99.90;;;;;;5071981;28;20210;-57
2022/05/22 10:44:08;;;;;;;2.47;1.70;;;12.50;99.90;;;;;;5071894;28;20283;-59
2022/05/22 10:46:46;;;;;;;2.67;1.60;;;12.50;99.90;;;;;;5071981;28;20193;-58
2022/05/22 10:49:13;;;;;;;5.90;3.67;;;12.40;99.90;;;;;;5071976;28;20650;-58
2022/05/22 10:51:41;;;;;;;4.50;3.07;;;12.40;99.90;;;;;;5071816;28;20684;-59
2022/05/22 10:54:08;;;;;;;2.80;1.90;;;12.40;99.90;;;;;;5071944;28;20225;-59
2022/05/22 10:56:36;;;;;;;2.50;1.73;;;12.30;99.90;;;;;;5071506;28;20229;-58
2022/05/22 10:59:05;;;;;;;2.00;1.80;;;12.30;99.90;;;;;;5071678;28;20630;-56
2022/05/22 11:01:35;;;;;;;1.97;1.70;;;12.20;99.90;;;;;;5071549;28;20204;-61
2022/05/22 11:04:05;;;;;;;2.67;1.70;;;12.20;99.90;;;;;;5071705;28;20227;-59
2022/05/22 11:06:33;;;;;;;3.47;1.90;;;12.20;99.90;;;;;;5071315;28;20193;-58
2022/05/22 11:09:01;;;;;;;1.70;1.60;;;12.10;99.90;;;;;;5071305;28;20216;-57
2022/05/22 11:11:30;;;;;;;2.77;1.70;;;12.10;99.90;;;;;;5071462;28;20220;-60
2022/05/22 11:14:07;;;;;;;2.87;1.70;;;12.10;99.90;;;;;;5071509;28;20260;-55
2022/05/22 11:16:33;;;;;;;2.57;1.87;;;12.10;99.90;;;;;;5071313;28;20646;-58
2022/05/22 11:19:07;;;;;;;2.47;1.60;;;12.20;99.90;;;;;;5071586;28;20205;-59
2022/05/22 11:21:37;;;;;;;3.60;2.00;;;12.20;99.90;;;;;;5071487;28;20200;-59
2022/05/22 11:24:22;;;;;;;2.30;1.80;;;12.20;99.90;;;;;;5071373;28;20200;-58
2022/05/22 11:26:59;;;;;;;3.27;2.03;;;12.20;99.90;;;;;;5070961;28;20189;-57
2022/05/22 11:29:41;;;;;;;3.17;2.00;;;12.20;99.90;;;;;;5071292;28;20193;-58
2022/05/22 11:32:24;;;;;;;1.90;1.70;;;12.20;99.90;;;;;;5071467;28;20193;-60
2022/05/22 11:35:10;;;;;;;2.00;1.70;;;12.20;99.90;;;;;;5070947;28;20208;-55
2022/05/22 11:37:52;;;;;;;1.97;1.77;;;12.20;99.90;;;;;;5071239;28;20589;-58
2022/05/22 11:40:32;;;;;;;3.23;1.90;;;12.20;99.90;;;;;;5071124;28;20193;-58
2022/05/22 11:43:09;;;;;;;1.83;1.70;;;12.10;99.90;;;;;;5071147;28;20193;-58
2022/05/22 11:45:44;;;;;;;4.73;2.13;;;12.10;99.90;;;;;;5070930;28;20658;-59
2022/05/22 11:48:36;;;;;;;10.93;3.73;;;12.10;99.90;;;;;;5071247;28;20192;-59
2022/05/22 11:51:21;;;;;;;1.53;1.40;;;12.00;99.90;;;;;;5074360;28;20196;-56
2022/05/22 11:54:15;;;;;;;3.00;1.30;;;11.90;99.90;;;;;;5074898;28;20259;-57
2022/05/22 11:57:04;;;;;;;3.60;1.43;;;11.90;99.90;;;;;;5074675;28;20240;-57
2022/05/22 12:00:03;;;;;;;1.63;1.50;;;11.80;99.90;;;;;;5074645;28;20549;-59
2022/05/22 12:02:42;;;;;;;1.50;1.40;;;11.80;99.90;;;;;;5065986;28;20205;-58
2022/05/22 12:05:25;;;;;;;1.67;1.50;;;11.80;99.90;;;;;;5075006;28;20596;-57
2022/05/22 12:08:16;;;;;;;2.90;1.30;;;11.90;99.90;;;;;;5074684;28;20192;-57
2022/05/22 12:10:47;;;;;;;2.70;1.33;;;11.90;99.90;;;;;;5074778;28;20193;-55
2022/05/22 12:13:22;;;;;;;2.23;1.50;;;11.90;99.90;;;;;;5074684;28;20262;-60
2022/05/22 12:15:55;;;;;;;2.97;1.40;;;11.90;99.90;;;;;;5074690;28;20671;-58
2022/05/22 12:18:40;;;;;;;1.47;1.37;;;11.80;99.90;;;;;;5074510;28;20193;-57
2022/05/22 12:21:17;;;;;;;1.30;1.20;;;11.80;99.90;;;;;;5074716;28;20714;-60
2022/05/22 12:23:54;;;;;;;1.40;1.30;;;11.80;99.90;;;;;;5074600;28;20196;-57
2022/05/22 12:26:22;;;;;;;2.73;1.50;;;11.90;99.90;;;;;;5074581;28;20637;-57
2022/05/22 12:28:53;;;;;;;2.07;1.40;;;11.80;99.90;;;;;;5074541;28;20204;-58
2022/05/22 12:31:26;;;;;;;1.77;1.50;;;11.80;99.90;;;;;;5074044;28;20188;-56
2022/05/22 12:33:56;;;;;;;1.50;1.40;;;11.80;99.90;;;;;;5074656;28;20547;-59
2022/05/22 12:36:25;;;;;;;3.00;1.40;;;11.80;99.90;;;;;;5074329;28;20627;-59
2022/05/22 12:38:57;;;;;;;1.67;1.57;;;11.70;99.90;;;;;;5074342;28;20204;-58
2022/05/22 12:41:43;;;;;;;1.30;1.20;;;11.80;99.90;;;;;;5074200;28;20225;-58
2022/05/22 12:44:12;;;;;;;1.50;1.40;;;11.80;99.90;;;;;;5074414;28;20193;-57
2022/05/22 12:46:40;;;;;;;3.70;1.67;;;11.80;99.90;;;;;;5073960;28;20244;-57
2022/05/22 12:49:10;;;;;;;1.40;1.30;;;11.80;99.90;;;;;;5073702;28;20205;-57
2022/05/22 12:51:39;;;;;;;1.70;1.40;;;11.70;99.90;;;;;;5074180;28;20296;-57
2022/05/22 12:54:13;;;;;;;1.80;1.60;;;11.70;99.90;;;;;;5073749;28;20209;-59
2022/05/22 12:56:41;;;;;;;1.40;1.30;;;11.60;99.90;;;;;;5073518;28;20291;-59
2022/05/22 12:59:21;;;;;;;2.50;1.50;;;11.60;99.90;;;;;;5074038;28;20189;-59
2022/05/22 13:01:50;;;;;;;4.30;2.70;;;11.70;99.90;;;;;;5072636;28;20196;-58
2022/05/22 13:04:25;;;;;;;1.60;1.50;;;11.70;99.90;;;;;;5073708;28;20200;-57
2022/05/22 13:06:55;;;;;;;1.60;1.50;;;11.70;99.90;;;;;;5073405;28;20192;-58
2022/05/22 13:09:33;;;;;;;1.40;1.30;;;11.70;99.90;;;;;;5073575;28;20205;-60
2022/05/22 13:12:03;;;;;;;3.23;1.50;;;11.70;99.90;;;;;;5073512;28;20524;-57